Terminal Aerodrome Forecast
Issued by NWS Grand Junction, CO

Home | Current Version | Previous Version | Text Only | Print | Product List | Glossary On
Versions: 1 2 3 4 5 6 7 8 9 10 11 12 13 14 15 16 17 18 19 20 21 22 23 24 25 26 27 28 29 30 31 32 33 34 35 36 37 38 39 40
000
FTUS45 KGJT 020111 AAA
TAFGJT
TAF AMD
KGJT 020111Z 0201/0224 26012G22KT P6SM FEW090 BKN250
      TEMPO 0201/0205 28010KT
     FM020500 34010KT P6SM SCT250
     FM020800 08008KT P6SM BKN200
     FM021700 34010G20KT P6SM SCT080 BKN120=

USA.gov is the U.S. government's official web portal to all federal, state and local government web resources and services.